sensor_id;sensor_type;location;lat;lon;timestamp;pressure;altitude;pressure_sealevel;temperature;humidity
37792;BME280;29527;55.766;37.570;2022-10-17T00:00:43;100996.03;;;7.63;50.41
37792;BME280;29527;55.766;37.570;2022-10-17T00:03:09;101001.47;;;7.61;50.22
37792;BME280;29527;55.766;37.570;2022-10-17T00:05:39;100988.41;;;7.55;50.43
37792;BME280;29527;55.766;37.570;2022-10-17T00:08:05;100989.34;;;7.54;50.57
37792;BME280;29527;55.766;37.570;2022-10-17T00:10:30;100986.78;;;7.52;50.82
37792;BME280;29527;55.766;37.570;2022-10-17T00:12:56;100979.78;;;7.50;50.83
37792;BME280;29527;55.766;37.570;2022-10-17T00:15:21;100989.59;;;7.49;50.94
37792;BME280;29527;55.766;37.570;2022-10-17T00:17:47;100977.22;;;7.48;50.82
37792;BME280;29527;55.766;37.570;2022-10-17T00:20:13;100976.34;;;7.47;50.99
37792;BME280;29527;55.766;37.570;2022-10-17T00:22:39;100972.00;;;7.45;50.88
37792;BME280;29527;55.766;37.570;2022-10-17T00:25:05;100945.97;;;7.32;51.07
37792;BME280;29527;55.766;37.570;2022-10-17T00:27:34;100964.50;;;7.53;50.93
37792;BME280;29527;55.766;37.570;2022-10-17T00:29:59;100959.34;;;7.50;50.78
37792;BME280;29527;55.766;37.570;2022-10-17T00:32:25;100960.28;;;7.49;50.97
37792;BME280;29527;55.766;37.570;2022-10-17T00:34:50;100945.34;;;7.45;51.21
37792;BME280;29527;55.766;37.570;2022-10-17T00:37:15;100954.28;;;7.44;51.02
37792;BME280;29527;55.766;37.570;2022-10-17T00:39:41;100936.91;;;7.37;51.11
37792;BME280;29527;55.766;37.570;2022-10-17T00:42:11;100946.72;;;7.36;51.25
37792;BME280;29527;55.766;37.570;2022-10-17T00:47:09;100945.66;;;7.39;51.32
37792;BME280;29527;55.766;37.570;2022-10-17T00:49:37;100943.16;;;7.36;51.40
37792;BME280;29527;55.766;37.570;2022-10-17T00:52:12;100940.34;;;7.39;51.16
37792;BME280;29527;55.766;37.570;2022-10-17T00:54:43;100924.50;;;7.36;51.21
37792;BME280;29527;55.766;37.570;2022-10-17T00:57:10;100922.94;;;7.31;51.43
37792;BME280;29527;55.766;37.570;2022-10-17T00:59:38;100922.06;;;7.31;51.44
37792;BME280;29527;55.766;37.570;2022-10-17T01:02:11;100915.56;;;7.37;51.24
37792;BME280;29527;55.766;37.570;2022-10-17T01:04:40;100908.38;;;7.39;51.24
37792;BME280;29527;55.766;37.570;2022-10-17T01:07:06;100899.75;;;7.33;51.36
37792;BME280;29527;55.766;37.570;2022-10-17T01:09:31;100903.34;;;7.32;51.23
37792;BME280;29527;55.766;37.570;2022-10-17T01:12:12;100900.31;;;7.40;51.32
37792;BME280;29527;55.766;37.570;2022-10-17T01:23:11;100884.09;;;7.27;51.48
37792;BME280;29527;55.766;37.570;2022-10-17T01:31:15;100880.06;;;7.18;51.67
37792;BME280;29527;55.766;37.570;2022-10-17T01:34:03;100888.44;;;7.11;51.90
37792;BME280;29527;55.766;37.570;2022-10-17T01:36:38;100879.34;;;7.15;51.79
37792;BME280;29527;55.766;37.570;2022-10-17T01:47:29;100859.66;;;7.00;52.45
37792;BME280;29527;55.766;37.570;2022-10-17T01:50:00;100861.22;;;7.04;52.51
37792;BME280;29527;55.766;37.570;2022-10-17T01:52:34;100861.22;;;7.04;52.53
37792;BME280;29527;55.766;37.570;2022-10-17T01:55:11;100851.38;;;7.06;52.26
37792;BME280;29527;55.766;37.570;2022-10-17T01:57:47;100829.75;;;6.95;52.74
37792;BME280;29527;55.766;37.570;2022-10-17T02:00:15;100846.78;;;7.27;50.90
37792;BME280;29527;55.766;37.570;2022-10-17T02:02:42;100853.81;;;7.11;51.87
37792;BME280;29527;55.766;37.570;2022-10-17T02:05:09;100828.47;;;6.84;52.22
37792;BME280;29527;55.766;37.570;2022-10-17T02:07:34;100847.50;;;6.94;52.50
37792;BME280;29527;55.766;37.570;2022-10-17T02:10:02;100845.56;;;6.98;52.69
37792;BME280;29527;55.766;37.570;2022-10-17T02:15:18;100859.81;;;6.97;52.70
37792;BME280;29527;55.766;37.570;2022-10-17T02:20:50;100847.84;;;7.06;52.39
37792;BME280;29527;55.766;37.570;2022-10-17T02:26:27;100836.09;;;7.10;52.26
37792;BME280;29527;55.766;37.570;2022-10-17T02:32:07;100840.50;;;7.11;51.96
37792;BME280;29527;55.766;37.570;2022-10-17T02:34:42;100839.25;;;7.00;52.33
37792;BME280;29527;55.766;37.570;2022-10-17T02:37:13;100850.75;;;7.01;52.42
37792;BME280;29527;55.766;37.570;2022-10-17T02:39:40;100836.22;;;6.89;52.51
37792;BME280;29527;55.766;37.570;2022-10-17T02:42:10;100827.47;;;6.87;52.81
37792;BME280;29527;55.766;37.570;2022-10-17T02:44:40;100840.78;;;6.87;52.90
37792;BME280;29527;55.766;37.570;2022-10-17T02:47:26;100826.31;;;6.93;52.76
37792;BME280;29527;55.766;37.570;2022-10-17T02:49:55;100821.41;;;6.83;53.07
37792;BME280;29527;55.766;37.570;2022-10-17T02:52:35;100810.59;;;6.86;53.01
37792;BME280;29527;55.766;37.570;2022-10-17T02:55:19;100811.47;;;6.87;52.82
37792;BME280;29527;55.766;37.570;2022-10-17T02:57:48;100807.75;;;7.09;51.50
37792;BME280;29527;55.766;37.570;2022-10-17T03:00:17;100804.59;;;6.83;53.08
37792;BME280;29527;55.766;37.570;2022-10-17T03:02:46;100802.47;;;6.72;53.55
37792;BME280;29527;55.766;37.570;2022-10-17T03:05:14;100809.41;;;6.74;53.44
37792;BME280;29527;55.766;37.570;2022-10-17T03:07:40;100811.16;;;6.75;53.52
37792;BME280;29527;55.766;37.570;2022-10-17T03:10:05;100797.19;;;6.70;53.47
37792;BME280;29527;55.766;37.570;2022-10-17T03:12:31;100798.69;;;6.76;53.50
37792;BME280;29527;55.766;37.570;2022-10-17T03:14:56;100774.97;;;6.71;53.36
37792;BME280;29527;55.766;37.570;2022-10-17T03:17:22;100794.88;;;6.82;53.45
37792;BME280;29527;55.766;37.570;2022-10-17T03:19:47;100780.78;;;6.80;53.54
37792;BME280;29527;55.766;37.570;2022-10-17T03:22:13;100790.34;;;6.84;53.15
37792;BME280;29527;55.766;37.570;2022-10-17T03:24:38;100769.22;;;6.81;53.57
37792;BME280;29527;55.766;37.570;2022-10-17T03:27:04;100758.84;;;6.74;53.44
37792;BME280;29527;55.766;37.570;2022-10-17T03:29:29;100761.22;;;6.81;53.17
37792;BME280;29527;55.766;37.570;2022-10-17T03:31:54;100778.91;;;6.82;53.55
37792;BME280;29527;55.766;37.570;2022-10-17T03:34:20;100773.44;;;6.85;53.27
37792;BME280;29527;55.766;37.570;2022-10-17T03:36:45;100763.56;;;6.87;53.32
37792;BME280;29527;55.766;37.570;2022-10-17T03:39:11;100758.88;;;6.92;53.13
37792;BME280;29527;55.766;37.570;2022-10-17T03:41:37;100755.97;;;6.97;52.75
37792;BME280;29527;55.766;37.570;2022-10-17T03:44:02;100737.00;;;6.85;52.49
37792;BME280;29527;55.766;37.570;2022-10-17T03:46:28;100749.88;;;6.95;52.92
37792;BME280;29527;55.766;37.570;2022-10-17T03:48:53;100764.13;;;6.94;53.01
37792;BME280;29527;55.766;37.570;2022-10-17T03:51:19;100741.09;;;6.93;52.97
37792;BME280;29527;55.766;37.570;2022-10-17T03:53:44;100755.66;;;7.03;52.77
37792;BME280;29527;55.766;37.570;2022-10-17T03:56:11;100761.09;;;7.01;53.02
37792;BME280;29527;55.766;37.570;2022-10-17T03:58:37;100751.50;;;6.97;52.80
37792;BME280;29527;55.766;37.570;2022-10-17T04:01:07;100721.28;;;6.81;52.84
37792;BME280;29527;55.766;37.570;2022-10-17T04:03:33;100740.78;;;6.99;52.93
37792;BME280;29527;55.766;37.570;2022-10-17T04:05:59;100736.88;;;7.06;52.53
37792;BME280;29527;55.766;37.570;2022-10-17T04:08:25;100730.19;;;6.97;52.77
37792;BME280;29527;55.766;37.570;2022-10-17T04:10:51;100701.72;;;6.82;52.89
37792;BME280;29527;55.766;37.570;2022-10-17T04:13:16;100737.25;;;6.98;52.89
37792;BME280;29527;55.766;37.570;2022-10-17T04:15:52;100742.13;;;7.08;53.21
37792;BME280;29527;55.766;37.570;2022-10-17T04:18:18;100729.91;;;7.03;52.65
37792;BME280;29527;55.766;37.570;2022-10-17T04:20:43;100726.47;;;7.01;53.08
37792;BME280;29527;55.766;37.570;2022-10-17T04:23:09;100736.34;;;6.99;52.88
37792;BME280;29527;55.766;37.570;2022-10-17T04:25:34;100731.00;;;6.99;53.00
37792;BME280;29527;55.766;37.570;2022-10-17T04:27:59;100718.63;;;6.98;53.02
37792;BME280;29527;55.766;37.570;2022-10-17T04:30:25;100719.44;;;7.00;53.05
37792;BME280;29527;55.766;37.570;2022-10-17T04:32:50;100687.31;;;6.86;52.94
37792;BME280;29527;55.766;37.570;2022-10-17T04:35:16;100699.41;;;7.09;52.95
37792;BME280;29527;55.766;37.570;2022-10-17T04:37:41;100708.91;;;7.15;52.60
37792;BME280;29527;55.766;37.570;2022-10-17T04:40:07;100706.94;;;7.18;52.35
37792;BME280;29527;55.766;37.570;2022-10-17T04:42:33;100715.78;;;7.19;52.75
37792;BME280;29527;55.766;37.570;2022-10-17T04:44:58;100698.63;;;7.25;52.46
37792;BME280;29527;55.766;37.570;2022-10-17T04:47:24;100706.38;;;7.29;52.16
37792;BME280;29527;55.766;37.570;2022-10-17T04:49:49;100707.41;;;7.27;52.36
37792;BME280;29527;55.766;37.570;2022-10-17T04:52:14;100698.13;;;7.34;52.14
37792;BME280;29527;55.766;37.570;2022-10-17T04:54:40;100699.72;;;7.38;52.18
37792;BME280;29527;55.766;37.570;2022-10-17T04:57:05;100669.41;;;7.23;52.20
37792;BME280;29527;55.766;37.570;2022-10-17T04:59:31;100707.13;;;7.49;51.90
37792;BME280;29527;55.766;37.570;2022-10-17T05:01:56;100696.97;;;7.56;51.65
37792;BME280;29527;55.766;37.570;2022-10-17T05:04:21;100701.28;;;7.58;51.47
37792;BME280;29527;55.766;37.570;2022-10-17T05:06:47;100689.69;;;7.59;51.44
37792;BME280;29527;55.766;37.570;2022-10-17T05:09:12;100679.97;;;7.58;51.55
37792;BME280;29527;55.766;37.570;2022-10-17T05:11:38;100686.69;;;7.66;51.43
37792;BME280;29527;55.766;37.570;2022-10-17T05:14:03;100684.97;;;7.65;51.47
37792;BME280;29527;55.766;37.570;2022-10-17T05:16:29;100678.09;;;7.60;51.54
37792;BME280;29527;55.766;37.570;2022-10-17T05:18:56;100685.91;;;7.64;51.35
37792;BME280;29527;55.766;37.570;2022-10-17T05:21:23;100670.25;;;7.57;51.66
37792;BME280;29527;55.766;37.570;2022-10-17T05:23:49;100662.88;;;7.63;51.61
37792;BME280;29527;55.766;37.570;2022-10-17T05:26:15;100655.41;;;7.69;51.79
37792;BME280;29527;55.766;37.570;2022-10-17T05:28:40;100663.22;;;7.72;51.50
37792;BME280;29527;55.766;37.570;2022-10-17T05:31:08;100670.03;;;7.78;51.20
37792;BME280;29527;55.766;37.570;2022-10-17T05:33:34;100669.69;;;7.84;50.91
37792;BME280;29527;55.766;37.570;2022-10-17T05:36:00;100670.56;;;7.85;51.32
37792;BME280;29527;55.766;37.570;2022-10-17T05:38:26;100675.63;;;7.89;51.08
37792;BME280;29527;55.766;37.570;2022-10-17T05:40:56;100652.13;;;7.96;50.92
37792;BME280;29527;55.766;37.570;2022-10-17T05:43:22;100644.06;;;7.98;50.70
37792;BME280;29527;55.766;37.570;2022-10-17T05:45:48;100615.22;;;7.88;50.54
37792;BME280;29527;55.766;37.570;2022-10-17T05:48:13;100625.63;;;8.09;50.22
37792;BME280;29527;55.766;37.570;2022-10-17T05:50:38;100640.13;;;8.19;50.21
37792;BME280;29527;55.766;37.570;2022-10-17T05:53:04;100633.34;;;8.30;49.88
37792;BME280;29527;55.766;37.570;2022-10-17T05:55:29;100627.56;;;8.38;49.58
37792;BME280;29527;55.766;37.570;2022-10-17T05:57:55;100627.13;;;8.45;49.52
37792;BME280;29527;55.766;37.570;2022-10-17T06:00:21;100612.09;;;8.59;48.80
37792;BME280;29527;55.766;37.570;2022-10-17T06:02:47;100641.00;;;8.97;48.27
37792;BME280;29527;55.766;37.570;2022-10-17T06:05:13;100638.31;;;9.12;47.71
37792;BME280;29527;55.766;37.570;2022-10-17T06:07:38;100642.50;;;9.16;48.02
37792;BME280;29527;55.766;37.570;2022-10-17T06:10:05;100643.56;;;9.13;47.98
37792;BME280;29527;55.766;37.570;2022-10-17T06:12:30;100632.78;;;9.15;48.29
37792;BME280;29527;55.766;37.570;2022-10-17T06:14:56;100641.47;;;9.18;47.74
37792;BME280;29527;55.766;37.570;2022-10-17T06:17:21;100619.34;;;9.16;47.80
37792;BME280;29527;55.766;37.570;2022-10-17T06:19:47;100639.84;;;9.16;47.75
37792;BME280;29527;55.766;37.570;2022-10-17T06:22:13;100620.69;;;9.09;47.94
37792;BME280;29527;55.766;37.570;2022-10-17T06:24:38;100595.78;;;8.94;48.13
37792;BME280;29527;55.766;37.570;2022-10-17T06:27:04;100628.69;;;9.09;47.91
37792;BME280;29527;55.766;37.570;2022-10-17T06:29:29;100614.84;;;9.02;48.52
37792;BME280;29527;55.766;37.570;2022-10-17T06:31:55;100632.41;;;9.07;48.12
37792;BME280;29527;55.766;37.570;2022-10-17T06:34:20;100628.00;;;9.05;48.22
37792;BME280;29527;55.766;37.570;2022-10-17T06:36:46;100635.66;;;9.12;48.16
37792;BME280;29527;55.766;37.570;2022-10-17T06:39:12;100643.47;;;9.15;48.11
37792;BME280;29527;55.766;37.570;2022-10-17T06:41:38;100621.13;;;9.16;47.92
37792;BME280;29527;55.766;37.570;2022-10-17T06:44:05;100617.16;;;9.23;47.80
37792;BME280;29527;55.766;37.570;2022-10-17T06:46:36;100603.78;;;9.23;47.72
37792;BME280;29527;55.766;37.570;2022-10-17T06:49:01;100572.28;;;9.14;47.78
37792;BME280;29527;55.766;37.570;2022-10-17T06:51:29;100587.28;;;9.31;47.69
37792;BME280;29527;55.766;37.570;2022-10-17T06:53:57;100581.41;;;9.53;47.33
37792;BME280;29527;55.766;37.570;2022-10-17T06:56:22;100585.13;;;9.65;46.65
37792;BME280;29527;55.766;37.570;2022-10-17T06:58:48;100580.88;;;9.75;46.56
37792;BME280;29527;55.766;37.570;2022-10-17T07:01:16;100585.19;;;10.05;46.06
37792;BME280;29527;55.766;37.570;2022-10-17T07:03:42;100597.78;;;10.31;45.18
37792;BME280;29527;55.766;37.570;2022-10-17T07:06:10;100554.94;;;10.31;44.94
37792;BME280;29527;55.766;37.570;2022-10-17T07:08:36;100591.44;;;10.59;44.40
37792;BME280;29527;55.766;37.570;2022-10-17T07:11:09;100582.44;;;10.60;44.90
37792;BME280;29527;55.766;37.570;2022-10-17T07:13:35;100599.91;;;10.53;44.75
37792;BME280;29527;55.766;37.570;2022-10-17T07:16:00;100599.09;;;10.38;44.87
37792;BME280;29527;55.766;37.570;2022-10-17T07:18:26;100585.34;;;10.30;45.63
37792;BME280;29527;55.766;37.570;2022-10-17T07:20:53;100582.78;;;10.28;45.55
37792;BME280;29527;55.766;37.570;2022-10-17T07:23:19;100584.50;;;10.29;45.64
37792;BME280;29527;55.766;37.570;2022-10-17T07:25:44;100582.56;;;10.18;45.72
37792;BME280;29527;55.766;37.570;2022-10-17T07:28:10;100594.41;;;10.14;46.30
37792;BME280;29527;55.766;37.570;2022-10-17T07:30:35;100586.72;;;9.95;46.65
37792;BME280;29527;55.766;37.570;2022-10-17T07:33:01;100577.97;;;9.93;46.90
37792;BME280;29527;55.766;37.570;2022-10-17T07:35:26;100575.06;;;9.96;46.70
37792;BME280;29527;55.766;37.570;2022-10-17T07:37:52;100551.63;;;9.87;47.07
37792;BME280;29527;55.766;37.570;2022-10-17T07:40:17;100564.06;;;10.01;46.63
37792;BME280;29527;55.766;37.570;2022-10-17T07:42:43;100562.44;;;9.98;46.85
37792;BME280;29527;55.766;37.570;2022-10-17T07:45:09;100584.53;;;10.02;47.03
37792;BME280;29527;55.766;37.570;2022-10-17T07:47:34;100575.75;;;10.00;46.82
37792;BME280;29527;55.766;37.570;2022-10-17T07:50:01;100573.28;;;9.97;47.24
37792;BME280;29527;55.766;37.570;2022-10-17T07:52:27;100570.59;;;9.97;47.13
37792;BME280;29527;55.766;37.570;2022-10-17T07:54:53;100568.22;;;9.92;47.24
37792;BME280;29527;55.766;37.570;2022-10-17T07:57:18;100560.69;;;9.84;47.46
37792;BME280;29527;55.766;37.570;2022-10-17T07:59:43;100565.50;;;9.79;47.38
37792;BME280;29527;55.766;37.570;2022-10-17T08:02:29;100567.97;;;9.82;48.31
37792;BME280;29527;55.766;37.570;2022-10-17T08:04:55;100575.84;;;9.71;49.35
37792;BME280;29527;55.766;37.570;2022-10-17T08:07:20;100554.13;;;9.48;50.38
37792;BME280;29527;55.766;37.570;2022-10-17T08:09:46;100577.78;;;9.54;51.56
37792;BME280;29527;55.766;37.570;2022-10-17T08:12:12;100570.66;;;9.40;52.85
37792;BME280;29527;55.766;37.570;2022-10-17T08:14:42;100527.25;;;9.22;54.02
37792;BME280;29527;55.766;37.570;2022-10-17T08:17:08;100533.75;;;9.18;54.91
37792;BME280;29527;55.766;37.570;2022-10-17T08:19:36;100556.53;;;9.38;54.48
37792;BME280;29527;55.766;37.570;2022-10-17T08:22:01;100583.47;;;9.35;54.45
37792;BME280;29527;55.766;37.570;2022-10-17T08:24:27;100574.75;;;9.31;54.35
37792;BME280;29527;55.766;37.570;2022-10-17T08:26:52;100555.97;;;9.33;54.19
37792;BME280;29527;55.766;37.570;2022-10-17T08:29:18;100554.34;;;9.30;54.39
37792;BME280;29527;55.766;37.570;2022-10-17T08:31:44;100564.06;;;9.31;54.59
37792;BME280;29527;55.766;37.570;2022-10-17T08:34:09;100559.09;;;9.40;55.52
37792;BME280;29527;55.766;37.570;2022-10-17T08:36:35;100563.31;;;9.44;54.41
37792;BME280;29527;55.766;37.570;2022-10-17T08:39:00;100561.00;;;9.38;54.50
37792;BME280;29527;55.766;37.570;2022-10-17T08:46:38;100537.63;;;9.41;54.23
37792;BME280;29527;55.766;37.570;2022-10-17T08:49:15;100527.88;;;9.40;54.00
37792;BME280;29527;55.766;37.570;2022-10-17T08:51:50;100549.75;;;9.47;54.04
37792;BME280;29527;55.766;37.570;2022-10-17T08:54:36;100543.16;;;9.53;53.76
37792;BME280;29527;55.766;37.570;2022-10-17T08:57:03;100545.56;;;9.28;53.80
37792;BME280;29527;55.766;37.570;2022-10-17T08:59:29;100561.00;;;9.38;54.42
37792;BME280;29527;55.766;37.570;2022-10-17T09:02:33;100565.78;;;9.47;54.12
37792;BME280;29527;55.766;37.570;2022-10-17T09:18:21;100541.09;;;9.00;58.72
37792;BME280;29527;55.766;37.570;2022-10-17T09:20:53;100546.34;;;9.01;59.52
37792;BME280;29527;55.766;37.570;2022-10-17T09:23:29;100533.97;;;9.00;60.16
37792;BME280;29527;55.766;37.570;2022-10-17T09:25:58;100546.16;;;9.04;60.78
37792;BME280;29527;55.766;37.570;2022-10-17T09:28:31;100535.19;;;9.09;60.38
37792;BME280;29527;55.766;37.570;2022-10-17T09:33:40;100554.38;;;9.01;62.31
37792;BME280;29527;55.766;37.570;2022-10-17T09:36:31;100545.78;;;9.11;61.29
37792;BME280;29527;55.766;37.570;2022-10-17T09:39:33;100535.41;;;9.06;61.89
37792;BME280;29527;55.766;37.570;2022-10-17T09:41:59;100536.91;;;9.10;61.56
37792;BME280;29527;55.766;37.570;2022-10-17T09:44:31;100524.38;;;9.25;61.81
37792;BME280;29527;55.766;37.570;2022-10-17T09:49:41;100529.13;;;9.34;60.96
37792;BME280;29527;55.766;37.570;2022-10-17T09:52:16;100524.00;;;9.31;61.48
37792;BME280;29527;55.766;37.570;2022-10-17T09:54:45;100523.63;;;9.23;61.66
37792;BME280;29527;55.766;37.570;2022-10-17T09:57:13;100506.84;;;9.21;61.51
37792;BME280;29527;55.766;37.570;2022-10-17T09:59:44;100510.47;;;9.20;61.54
37792;BME280;29527;55.766;37.570;2022-10-17T10:04:57;100497.69;;;9.11;61.61
37792;BME280;29527;55.766;37.570;2022-10-17T10:07:26;100481.38;;;9.01;61.53
37792;BME280;29527;55.766;37.570;2022-10-17T10:09:52;100497.91;;;8.93;62.54
37792;BME280;29527;55.766;37.570;2022-10-17T10:12:27;100467.59;;;8.94;61.81
37792;BME280;29527;55.766;37.570;2022-10-17T10:14:53;100481.44;;;9.14;62.24
37792;BME280;29527;55.766;37.570;2022-10-17T10:19:51;100473.75;;;9.37;61.57
37792;BME280;29527;55.766;37.570;2022-10-17T10:22:18;100469.75;;;9.44;61.13
37792;BME280;29527;55.766;37.570;2022-10-17T10:24:45;100478.31;;;9.49;60.73
37792;BME280;29527;55.766;37.570;2022-10-17T10:27:17;100476.19;;;9.54;60.56
37792;BME280;29527;55.766;37.570;2022-10-17T10:29:50;100456.53;;;9.55;60.70
37792;BME280;29527;55.766;37.570;2022-10-17T10:32:22;100453.09;;;9.53;60.64
37792;BME280;29527;55.766;37.570;2022-10-17T10:37:20;100455.22;;;9.48;60.63
37792;BME280;29527;55.766;37.570;2022-10-17T10:39:52;100442.00;;;9.59;60.35
37792;BME280;29527;55.766;37.570;2022-10-17T10:44:54;100458.44;;;9.53;60.87
37792;BME280;29527;55.766;37.570;2022-10-17T10:47:27;100460.81;;;9.58;60.88
37792;BME280;29527;55.766;37.570;2022-10-17T10:50:08;100448.84;;;9.63;60.65
37792;BME280;29527;55.766;37.570;2022-10-17T10:52:51;100445.63;;;9.58;60.39
37792;BME280;29527;55.766;37.570;2022-10-17T10:55:28;100415.88;;;9.50;60.82
37792;BME280;29527;55.766;37.570;2022-10-17T10:57:59;100433.22;;;9.57;61.03
37792;BME280;29527;55.766;37.570;2022-10-17T11:00:26;100430.75;;;9.54;60.92
37792;BME280;29527;55.766;37.570;2022-10-17T11:05:55;100428.97;;;9.55;61.30
37792;BME280;29527;55.766;37.570;2022-10-17T11:11:13;100425.94;;;9.59;61.14
37792;BME280;29527;55.766;37.570;2022-10-17T11:14:05;100420.41;;;9.62;61.06
37792;BME280;29527;55.766;37.570;2022-10-17T11:19:03;100424.03;;;9.61;61.36
37792;BME280;29527;55.766;37.570;2022-10-17T11:24:20;100422.78;;;9.67;61.56
37792;BME280;29527;55.766;37.570;2022-10-17T11:26:59;100429.19;;;9.65;62.03
37792;BME280;29527;55.766;37.570;2022-10-17T11:29:34;100422.97;;;9.64;62.11
37792;BME280;29527;55.766;37.570;2022-10-17T11:32:14;100434.38;;;9.94;60.21
37792;BME280;29527;55.766;37.570;2022-10-17T11:34:50;100423.44;;;9.71;61.70
37792;BME280;29527;55.766;37.570;2022-10-17T11:37:26;100418.28;;;9.68;62.18
37792;BME280;29527;55.766;37.570;2022-10-17T11:39:57;100412.59;;;9.59;62.46
37792;BME280;29527;55.766;37.570;2022-10-17T11:42:31;100408.31;;;9.57;62.79
37792;BME280;29527;55.766;37.570;2022-10-17T11:45:08;100416.00;;;9.61;63.28
37792;BME280;29527;55.766;37.570;2022-10-17T11:47:48;100402.25;;;9.68;63.11
37792;BME280;29527;55.766;37.570;2022-10-17T11:50:29;100394.22;;;9.68;63.21
37792;BME280;29527;55.766;37.570;2022-10-17T11:52:59;100388.75;;;9.69;63.04
37792;BME280;29527;55.766;37.570;2022-10-17T11:55:28;100382.78;;;9.66;63.37
37792;BME280;29527;55.766;37.570;2022-10-17T12:00:51;100373.06;;;9.77;63.33
37792;BME280;29527;55.766;37.570;2022-10-17T12:12:31;100378.50;;;9.63;63.84
37792;BME280;29527;55.766;37.570;2022-10-17T12:17:40;100362.97;;;9.55;64.29
37792;BME280;29527;55.766;37.570;2022-10-17T12:22:46;100359.63;;;9.52;64.81
37792;BME280;29527;55.766;37.570;2022-10-17T12:25:20;100366.72;;;9.53;65.09
37792;BME280;29527;55.766;37.570;2022-10-17T12:27:47;100364.03;;;9.53;65.00
37792;BME280;29527;55.766;37.570;2022-10-17T12:30:23;100357.09;;;9.50;65.20
37792;BME280;29527;55.766;37.570;2022-10-17T12:32:57;100354.19;;;9.53;65.16
37792;BME280;29527;55.766;37.570;2022-10-17T12:35:25;100354.09;;;9.42;65.99
37792;BME280;29527;55.766;37.570;2022-10-17T12:43:02;100379.50;;;9.47;66.21
37792;BME280;29527;55.766;37.570;2022-10-17T12:45:53;100385.31;;;9.54;66.11
37792;BME280;29527;55.766;37.570;2022-10-17T12:51:19;100383.69;;;9.52;65.75
37792;BME280;29527;55.766;37.570;2022-10-17T12:54:07;100409.16;;;9.57;65.90
37792;BME280;29527;55.766;37.570;2022-10-17T12:56:38;100401.84;;;9.46;66.26
37792;BME280;29527;55.766;37.570;2022-10-17T13:01:38;100426.31;;;9.40;66.77
37792;BME280;29527;55.766;37.570;2022-10-17T13:04:08;100406.81;;;9.25;66.62
37792;BME280;29527;55.766;37.570;2022-10-17T13:06:44;100434.06;;;9.45;66.91
37792;BME280;29527;55.766;37.570;2022-10-17T13:09:21;100449.59;;;9.53;66.84
37792;BME280;29527;55.766;37.570;2022-10-17T13:11:48;100451.81;;;9.46;66.99
37792;BME280;29527;55.766;37.570;2022-10-17T13:14:16;100433.03;;;9.33;67.20
37792;BME280;29527;55.766;37.570;2022-10-17T13:17:00;100461.88;;;9.55;66.75
37792;BME280;29527;55.766;37.570;2022-10-17T13:19:45;100439.41;;;9.45;66.92
37792;BME280;29527;55.766;37.570;2022-10-17T13:22:18;100477.06;;;9.55;67.13
37792;BME280;29527;55.766;37.570;2022-10-17T13:24:45;100462.16;;;9.51;66.96
37792;BME280;29527;55.766;37.570;2022-10-17T13:29:47;100452.44;;;9.50;67.31
37792;BME280;29527;55.766;37.570;2022-10-17T13:32:13;100446.25;;;9.49;67.06
37792;BME280;29527;55.766;37.570;2022-10-17T13:34:38;100450.34;;;9.55;67.29
37792;BME280;29527;55.766;37.570;2022-10-17T13:37:05;100423.75;;;9.39;67.51
37792;BME280;29527;55.766;37.570;2022-10-17T13:39:43;100448.63;;;9.54;67.35
37792;BME280;29527;55.766;37.570;2022-10-17T13:42:21;100444.66;;;9.59;67.36
37792;BME280;29527;55.766;37.570;2022-10-17T13:44:48;100437.47;;;9.47;67.58
37792;BME280;29527;55.766;37.570;2022-10-17T13:47:25;100431.63;;;9.55;67.37
37792;BME280;29527;55.766;37.570;2022-10-17T13:49:51;100425.91;;;9.46;67.52
37792;BME280;29527;55.766;37.570;2022-10-17T13:52:20;100385.91;;;9.32;67.71
37792;BME280;29527;55.766;37.570;2022-10-17T13:54:48;100417.69;;;9.50;67.33
37792;BME280;29527;55.766;37.570;2022-10-17T13:57:27;100414.16;;;9.49;67.64
37792;BME280;29527;55.766;37.570;2022-10-17T13:59:58;100403.19;;;9.54;67.59
37792;BME280;29527;55.766;37.570;2022-10-17T14:02:27;100392.50;;;9.54;67.43
37792;BME280;29527;55.766;37.570;2022-10-17T14:05:16;100393.13;;;9.57;67.36
37792;BME280;29527;55.766;37.570;2022-10-17T14:07:48;100385.72;;;9.48;67.28
37792;BME280;29527;55.766;37.570;2022-10-17T14:10:29;100393.84;;;9.46;67.87
37792;BME280;29527;55.766;37.570;2022-10-17T14:12:57;100384.19;;;9.31;67.64
37792;BME280;29527;55.766;37.570;2022-10-17T14:15:27;100387.81;;;9.30;67.97
37792;BME280;29527;55.766;37.570;2022-10-17T14:17:59;100398.06;;;9.23;68.18
37792;BME280;29527;55.766;37.570;2022-10-17T14:20:26;100386.25;;;9.13;68.70
37792;BME280;29527;55.766;37.570;2022-10-17T14:22:53;100389.88;;;9.12;68.67
37792;BME280;29527;55.766;37.570;2022-10-17T14:25:33;100385.75;;;9.21;68.71
37792;BME280;29527;55.766;37.570;2022-10-17T14:30:42;100396.03;;;8.99;69.21
37792;BME280;29527;55.766;37.570;2022-10-17T14:33:14;100366.69;;;8.85;69.21
37792;BME280;29527;55.766;37.570;2022-10-17T14:35:55;100372.56;;;8.90;69.44
37792;BME280;29527;55.766;37.570;2022-10-17T14:38:21;100392.13;;;8.90;69.77
37792;BME280;29527;55.766;37.570;2022-10-17T14:40:59;100394.53;;;8.95;69.43
37792;BME280;29527;55.766;37.570;2022-10-17T14:43:28;100366.72;;;8.70;69.68
37792;BME280;29527;55.766;37.570;2022-10-17T14:45:59;100406.03;;;8.96;69.47
37792;BME280;29527;55.766;37.570;2022-10-17T14:48:27;100406.25;;;8.93;69.46
37792;BME280;29527;55.766;37.570;2022-10-17T14:51:12;100391.31;;;9.03;69.31
37792;BME280;29527;55.766;37.570;2022-10-17T14:53:40;100393.94;;;8.90;69.97
37792;BME280;29527;55.766;37.570;2022-10-17T14:56:48;100378.94;;;9.02;69.51